Tucson, AZ

9:00 AM MST on July 28, 2016 (GMT -0700)
UA WRRC WEATHER | | Change Station

Elev 2431 ft 32.23 °N, 110.94 °W | Updated 2 minutes ago

Clear
Clear
88.5 °F
Feels Like 92 °F
N
5.0
Wind Variable Wind from NNE
Gusts 6.0 mph

Today
High -- | Low -- °F
--% Chance of Precip.
Yesterday
High -- | Low -- °F
Precip. -- in
Pressure 29.88 in
Visibility 10.0 miles
Clouds Clear
Heat Index 92 °F
Dew Point 67 °F
Humidity 49%
Rainfall 0.00 in
Snow Depth Not available.
5:36 AM 7:23 PM
Waning Crescent, 31% visible
METAR KDMA 281358Z AUTO 06002KT 10SM CLR 25/20 A3000 RMK AO2 SLP118 T02470200 $
Pressure 29.88 in
Visibility 10.0 miles
Clouds Clear
Heat Index 92 °F
Dew Point 67 °F
Humidity 49%
Rainfall 0.00 in
Snow Depth Not available.
5:36 AM 7:23 PM
Waning Crescent, 31% visible
METAR KDMA 281358Z AUTO 06002KT 10SM CLR 25/20 A3000 RMK AO2 SLP118 T02470200 $

10-Day Weather Forecast

Almanac

Astronomy

Jul. 28, 2016 Rise Set
Actual Time
Civil Twilight
Nautical Twilight
Astronomical Twilight
Moon
Length of Visible Light
Length of Day
Tomorrow will be .
, % of the Moon is Illuminated

Today's Extremes

State Highs State Lows

Community

WunderPhotos

Upload Photos

1,928,140 photos uploaded!

WunderBlog® & News

Nearby

Air Quality

  Air Quality AQ Index Pollutant
Not available.

Snow Depth

Station Depth Elevation

Earthquake Activity

City Distance Mag. Time & Date
Minimum magnitude displayed is 2.5.

Coastal Water Temperatures

Place Temperature

Stations

Nearby Weather Stations

Station Location Temp. Windchill Dew Point Humidity Wind Precip. Elev Updated Type
                   

Watches & Warnings

There are currently no watches in effect.